Kumamoto, Japan

1:53 AM JST on October 26, 2014 (GMT +0900)
Saga | Change Station
CLOSE
Current Station
Airport
Location: Saga Airport,
Elevation: 16 ft
Nearby Weather Stations

Elev 16 ft 33.15 °N, 130.30 °E | Updated 53 minutes ago

Clear
Clear
59 °F
Feels Like 59 °F
N
6
Wind Variable Wind from NNE

Today
High -- | Low -- °F
--% Chance of Precip.
Yesterday
High -- | Low -- °F
Precip. -- in
6:28 AM 5:31 PM
Waxing Crescent, 3% visible
Pressure 30.12 in
Visibility -9999.0 miles
Clouds
Dew Point 52 °F
Humidity 77%
Rainfall 0.00 in
Snow Depth Not available.
UV Not available.
Pollen Not available.
Air Quality Not available.
Flu Activity Not available.
METAR RJFS 251600Z 02005KT CAVOK 15/11 Q1020

More Conditions Fewer Conditions

Pressure 30.12 in
Visibility -9999.0 miles
Clouds
Dew Point 52 °F
Humidity 77%
Rainfall 0.00 in
Snow Depth Not available.
UV Not available.
Pollen Not available.
Air Quality Not available.
Flu Activity Not available.
METAR RJFS 251600Z 02005KT CAVOK 15/11 Q1020

More Conditions Fewer Conditions

10-Day Weather Forecast

Almanac

Astronomy

Oct. 26, 2014 Rise Set
Actual Time 6:28 AM JST 5:31 PM JST
Civil Twilight 6:03 AM JST 5:57 PM JST
Nautical Twilight 5:34 AM JST 6:25 PM JST
Astronomical Twilight 5:06 AM JST 6:54 PM JST
Moon 8:26 AM JST (10/26) 7:18 PM JST (10/26)
Length of Visible Light 11h 53m
Length of Day
11h 03m
Tomorrow will be 1m 50s shorter.
Waxing Crescent, 3% of the Moon is Illuminated
Oct 25
Waxing Crescent
Oct 30
First Quarter
Nov 6
Full
Nov 14
Last Quarter
Nov 22
New

Yesterday's Extremes

Country Highs Country Lows

Community

WunderPhotos

Upload Photos

1,764,901 photos uploaded!

Nearby

Snow Depth

Not available.

Earthquake Activity

City Distance Mag. Time & Date
No recent earthquake activity has been reported nearby.
Minimum magnitude displayed is 2.5.

Coastal Water Temperatures

Place Temperature
No Stations Reporting

Nearby Weather Stations